Time;durP1;ratioP1;P1;durP2;ratioP2;P2;SDS_P1;SDS_P2;PMS_P1;PMS_P2;Temp;Humidity;BMP_temperature;BMP_pressure;BME280_temperature;BME280_humidity;BME280_pressure;Samples;Min_cycle;Max_cycle;Signal;HPM_P1;HPM_P2
2022/03/20 00:00:55;;;;;;;41.60;25.57;;;;;;;14.08;38.11;102336.25;1813046;79;21022;-63
2022/03/20 00:03:24;;;;;;;42.98;27.65;;;;;;;14.08;38.11;102335.38;1814499;78;20994;-63
2022/03/20 00:05:51;;;;;;;38.88;25.08;;;;;;;14.06;38.10;102340.02;1789657;79;21242;-64
2022/03/20 00:08:17;;;;;;;40.60;26.17;;;;;;;14.05;38.13;102331.66;1782179;80;21093;-63
2022/03/20 00:10:47;;;;;;;39.35;25.92;;;;;;;14.04;38.14;102337.95;1782655;80;21030;-64
2022/03/20 00:13:18;;;;;;;41.55;26.30;;;;;;;14.02;38.17;102337.23;1782671;80;21064;-65
2022/03/20 00:15:50;;;;;;;38.45;26.48;;;;;;;14.01;38.17;102336.39;1782627;79;20994;-64
2022/03/20 00:18:25;;;;;;;39.45;25.68;;;;;;;14.01;38.16;102336.89;1782442;79;21482;-63
2022/03/20 00:20:51;;;;;;;37.15;25.35;;;;;;;13.99;38.19;102340.18;1781824;79;21042;-64
2022/03/20 00:23:18;;;;;;;40.58;25.95;;;;;;;13.98;38.21;102339.80;1783432;78;20986;-64
2022/03/20 00:25:46;;;;;;;39.10;25.85;;;;;;;13.96;38.21;102330.58;1782466;79;21097;-63
2022/03/20 00:28:15;;;;;;;37.40;25.92;;;;;;;13.95;38.21;102331.56;1782482;80;20992;-64
2022/03/20 00:30:42;;;;;;;36.68;26.00;;;;;;;13.93;38.21;102330.34;1782842;79;21170;-64
2022/03/20 00:33:09;;;;;;;39.48;26.45;;;;;;;13.92;38.23;102326.46;1782370;79;20998;-64
2022/03/20 00:35:36;;;;;;;42.23;27.35;;;;;;;13.91;38.23;102323.45;1782858;80;21045;-65
2022/03/20 00:38:05;;;;;;;36.17;25.02;;;;;;;13.89;38.25;102324.91;1783462;79;21053;-64
2022/03/20 00:40:32;;;;;;;38.15;24.27;;;;;;;13.89;38.26;102330.25;1803661;78;21069;-64
2022/03/20 00:42:58;;;;;;;40.40;25.70;;;;;;;13.86;38.26;102322.47;1814538;79;21246;-64
2022/03/20 00:45:24;;;;;;;38.53;25.10;;;;;;;13.87;38.26;102321.98;1814483;79;21010;-64
2022/03/20 00:47:51;;;;;;;39.10;24.80;;;;;;;13.85;38.28;102321.25;1814516;79;20974;-63
2022/03/20 00:50:17;;;;;;;34.73;23.83;;;;;;;13.84;38.29;102324.92;1814569;79;21010;-63
2022/03/20 00:52:45;;;;;;;37.73;24.87;;;;;;;13.83;38.30;102328.09;1814773;79;21002;-63
2022/03/20 00:55:11;;;;;;;38.85;24.47;;;;;;;13.83;38.30;102331.22;1811759;78;21223;-65
2022/03/20 00:57:38;;;;;;;33.18;24.32;;;;;;;13.81;38.32;102323.36;1782475;80;21092;-64
2022/03/20 01:00:06;;;;;;;38.25;23.92;;;;;;;13.80;38.33;102320.31;1782566;79;21076;-65
2022/03/20 01:02:39;;;;;;;35.83;25.00;;;;;;;13.79;38.32;102314.63;1788878;79;21061;-65
2022/03/20 01:05:08;;;;;;;34.27;23.80;;;;;;;13.77;38.33;102319.22;1807747;78;21065;-64
2022/03/20 01:07:36;;;;;;;33.35;23.27;;;;;;;13.76;38.35;102320.20;1814889;79;21214;-63
2022/03/20 01:10:06;;;;;;;33.53;23.95;;;;;;;13.75;38.38;102315.36;1814585;79;21080;-64
2022/03/20 01:12:34;;;;;;;36.13;23.15;;;;;;;13.73;38.37;102304.41;1806300;78;21049;-64
2022/03/20 01:15:04;;;;;;;32.58;21.87;;;;;;;13.72;38.40;102314.27;1782438;80;21097;-64
2022/03/20 01:17:31;;;;;;;30.27;22.02;;;;;;;13.71;38.41;102317.92;1782713;80;22083;-64
2022/03/20 01:19:58;;;;;;;36.83;24.47;;;;;;;13.70;38.42;102316.21;1782501;80;22146;-64
2022/03/20 01:22:26;;;;;;;33.02;21.87;;;;;;;13.70;38.42;102316.21;1782468;79;21002;-63
2022/03/20 01:24:53;;;;;;;32.38;22.67;;;;;;;13.68;38.43;102309.31;1782498;80;21490;-63
2022/03/20 01:27:20;;;;;;;28.25;21.70;;;;;;;13.68;38.45;102313.31;1782415;79;21029;-64
2022/03/20 01:29:47;;;;;;;33.15;23.05;;;;;;;13.67;38.45;102315.61;1783490;79;21506;-63
2022/03/20 01:32:14;;;;;;;31.85;21.33;;;;;;;13.66;38.46;102324.62;1782719;80;21136;-63
2022/03/20 01:34:41;;;;;;;32.73;21.02;;;;;;;13.64;38.46;102323.40;1782508;79;21438;-64
2022/03/20 01:37:08;;;;;;;31.33;21.93;;;;;;;13.64;38.47;102315.88;1782451;79;20997;-64
2022/03/20 01:39:35;;;;;;;31.68;21.70;;;;;;;13.62;38.49;102313.80;1804322;79;21510;-64
2022/03/20 01:42:02;;;;;;;32.60;21.82;;;;;;;13.62;38.49;102309.78;1814586;78;21534;-64
2022/03/20 01:44:30;;;;;;;31.17;21.35;;;;;;;13.60;38.51;102315.28;1814399;79;21133;-63
2022/03/20 01:46:59;;;;;;;31.52;21.33;;;;;;;13.59;38.51;102317.58;1801212;78;20986;-64
2022/03/20 01:49:26;;;;;;;28.10;19.73;;;;;;;13.59;38.54;102316.73;1782349;80;21062;-64
2022/03/20 01:52:11;;;;;;;32.80;20.02;;;;;;;13.57;38.52;102310.17;1782394;79;21096;-63
2022/03/20 01:54:42;;;;;;;29.20;20.80;;;;;;;13.57;38.54;102322.19;1782530;80;21549;-64
2022/03/20 01:57:09;;;;;;;28.35;19.25;;;;;;;13.55;38.55;102331.66;1782426;80;21210;-65
2022/03/20 01:59:36;;;;;;;30.82;21.33;;;;;;;13.54;38.54;102317.09;1782575;79;21471;-63
2022/03/20 02:02:04;;;;;;;27.45;19.15;;;;;;;13.52;38.57;102318.58;1782517;80;20994;-64
2022/03/20 02:04:34;;;;;;;28.87;20.77;;;;;;;13.52;38.57;102323.91;1783458;79;21514;-63
2022/03/20 02:07:02;;;;;;;29.18;20.37;;;;;;;13.50;38.61;102312.97;1770718;80;21510;-63
2022/03/20 02:09:28;;;;;;;28.85;20.60;;;;;;;13.49;38.61;102313.96;1805983;78;22467;-64
2022/03/20 02:11:55;;;;;;;27.55;19.05;;;;;;;13.47;38.61;102314.08;1814680;78;21021;-64
2022/03/20 02:14:23;;;;;;;25.52;19.42;;;;;;;13.47;38.62;102314.58;1814393;78;20990;-64
2022/03/20 02:16:50;;;;;;;26.00;19.40;;;;;;;13.46;38.64;102313.73;1814482;79;21011;-64
2022/03/20 02:19:16;;;;;;;22.48;18.57;;;;;;;13.45;38.62;102301.34;1814515;78;21034;-63
2022/03/20 02:21:48;;;;;;;29.27;18.77;;;;;;;13.44;38.65;102306.80;1791296;79;21074;-64
2022/03/20 02:24:40;;;;;;;26.05;19.20;;;;;;;13.43;38.65;102295.28;1782245;80;21072;-64
2022/03/20 02:27:18;;;;;;;33.28;19.80;;;;;;;13.42;38.66;102296.23;1782365;79;21108;-64
2022/03/20 02:29:48;;;;;;;23.80;18.17;;;;;;;13.41;38.67;102307.06;1782312;80;22054;-63
2022/03/20 02:32:17;;;;;;;24.80;18.90;;;;;;;13.40;38.67;102301.34;1782712;80;21061;-63
2022/03/20 02:34:46;;;;;;;26.30;18.35;;;;;;;13.38;38.69;102298.80;1782388;79;21892;-63
2022/03/20 02:37:12;;;;;;;25.08;18.12;;;;;;;13.36;38.72;102294.07;1783300;79;21025;-63
2022/03/20 02:39:38;;;;;;;27.82;18.80;;;;;;;13.35;38.72;102295.06;1805119;77;21021;-64
2022/03/20 02:42:06;;;;;;;26.48;18.65;;;;;;;13.34;38.73;102302.69;1814529;78;21158;-64
2022/03/20 02:44:57;;;;;;;25.70;18.62;;;;;;;13.33;38.74;102302.34;1814617;78;20990;-64
2022/03/20 02:47:27;;;;;;;23.15;17.60;;;;;;;13.33;38.73;102313.86;1814358;79;21132;-63
2022/03/20 02:50:06;;;;;;;24.47;18.02;;;;;;;13.31;38.75;102314.97;1814448;79;21101;-64
2022/03/20 02:52:47;;;;;;;27.22;18.35;;;;;;;13.30;38.76;102315.92;1814766;79;21521;-64
2022/03/20 02:55:17;;;;;;;31.97;19.12;;;;;;;13.28;38.78;102314.67;1813382;78;21025;-64
2022/03/20 02:57:47;;;;;;;23.50;16.87;;;;;;;13.27;38.79;102313.45;1815035;78;21023;-63
2022/03/20 03:00:17;;;;;;;24.37;16.93;;;;;;;13.26;38.81;102309.11;1814696;78;21760;-63
2022/03/20 03:02:45;;;;;;;26.48;18.02;;;;;;;13.26;38.84;102303.77;1814041;78;21518;-63
2022/03/20 03:05:14;;;;;;;26.77;17.55;;;;;;;13.25;38.83;102306.06;1814510;79;21002;-64
2022/03/20 03:13:14;;;;;;;24.80;18.00;;;;;;;13.20;38.85;102297.59;1824730;78;21234;-64
2022/03/20 03:15:42;;;;;;;25.40;17.67;;;;;;;13.21;38.88;102300.61;1826016;78;20963;-65
2022/03/20 03:18:09;;;;;;;22.80;16.12;;;;;;;13.18;38.89;102304.38;1826166;78;21041;-64
2022/03/20 03:20:36;;;;;;;22.27;15.70;;;;;;;13.16;38.89;102301.83;1826084;78;21013;-63
2022/03/20 03:23:04;;;;;;;23.42;17.90;;;;;;;13.15;38.91;102297.48;1826135;78;21041;-64
2022/03/20 03:25:32;;;;;;;21.23;16.17;;;;;;;13.15;38.91;102297.94;1826175;78;21227;-64
2022/03/20 03:27:59;;;;;;;23.52;16.80;;;;;;;13.14;38.92;102296.26;1825321;78;21044;-63
2022/03/20 03:30:26;;;;;;;23.05;16.80;;;;;;;13.14;38.93;102296.26;1793585;80;21081;-64
2022/03/20 03:32:53;;;;;;;22.67;16.00;;;;;;;13.13;38.93;102294.09;1793684;79;21002;-63
2022/03/20 03:38:05;;;;;;;22.27;15.98;;;;;;;13.12;38.94;102281.70;1809538;78;21132;-63
2022/03/20 03:40:31;;;;;;;22.25;15.80;;;;;;;13.10;38.95;102283.64;1826106;78;21560;-65
2022/03/20 03:42:58;;;;;;;23.42;16.48;;;;;;;13.09;38.95;102275.26;1826201;78;21549;-63
2022/03/20 03:45:25;;;;;;;19.35;15.00;;;;;;;13.08;38.96;102280.25;1820373;78;21674;-64
2022/03/20 03:47:52;;;;;;;24.30;17.05;;;;;;;13.08;38.97;102277.58;1793724;79;20990;-64
2022/03/20 03:50:19;;;;;;;20.88;15.40;;;;;;;13.08;38.98;102274.07;1793537;79;21237;-64
2022/03/20 03:52:47;;;;;;;22.27;16.37;;;;;;;13.08;38.97;102272.73;1793520;80;21065;-65
2022/03/20 03:55:15;;;;;;;26.95;17.35;;;;;;;13.06;38.97;102276.02;1793844;80;20993;-63
2022/03/20 03:57:46;;;;;;;19.40;15.80;;;;;;;13.05;38.99;102268.47;1793940;80;21068;-63
2022/03/20 04:00:14;;;;;;;22.75;15.88;;;;;;;13.04;39.00;102272.12;1793579;79;21001;-63
2022/03/20 04:02:44;;;;;;;22.50;15.50;;;;;;;13.03;39.01;102273.09;1795122;78;21215;-64
2022/03/20 04:05:10;;;;;;;24.77;16.80;;;;;;;13.03;39.01;102274.42;1793576;80;20974;-63
2022/03/20 04:07:38;;;;;;;23.38;17.40;;;;;;;13.02;39.04;102271.87;1793560;79;21128;-63
2022/03/20 04:10:06;;;;;;;21.80;15.50;;;;;;;13.01;39.05;102276.36;1774097;80;20986;-64
2022/03/20 04:12:40;;;;;;;23.05;16.62;;;;;;;12.99;39.05;102275.14;1788343;79;21068;-65
2022/03/20 04:15:12;;;;;;;23.12;16.45;;;;;;;13.00;39.06;102272.02;1788445;79;21225;-64
2022/03/20 04:17:39;;;;;;;23.07;16.85;;;;;;;12.98;39.04;102272.12;1790668;78;21021;-63
2022/03/20 04:20:09;;;;;;;22.00;16.93;;;;;;;12.97;39.07;102269.08;1808052;78;21252;-63
2022/03/20 04:22:37;;;;;;;21.93;16.75;;;;;;;12.96;39.08;102268.73;1820549;78;21036;-64
2022/03/20 04:25:05;;;;;;;25.37;17.07;;;;;;;12.97;39.09;102269.58;1820774;78;21040;-64
2022/03/20 04:27:33;;;;;;;24.60;17.42;;;;;;;12.96;39.09;102268.73;1821136;78;21044;-63
2022/03/20 04:30:00;;;;;;;26.37;17.23;;;;;;;12.95;39.09;102266.19;1820538;78;21519;-64
2022/03/20 04:32:26;;;;;;;25.85;19.00;;;;;;;12.94;39.11;102260.01;1820509;78;21028;-63
2022/03/20 04:34:54;;;;;;;24.95;18.10;;;;;;;12.94;39.10;102267.14;1820549;78;21078;-64
2022/03/20 04:37:21;;;;;;;30.05;18.95;;;;;;;12.94;39.11;102267.14;1808587;78;21053;-65
2022/03/20 04:39:48;;;;;;;27.80;19.15;;;;;;;12.92;39.10;102263.28;1820655;77;21235;-64
2022/03/20 04:42:15;;;;;;;25.32;19.05;;;;;;;12.93;39.12;102269.46;1820529;78;21056;-63
2022/03/20 04:44:43;;;;;;;28.83;20.37;;;;;;;12.92;39.12;102277.09;1820667;77;21030;-64
2022/03/20 04:58:29;;;;;;;28.65;19.20;;;;;;;12.92;39.12;102275.29;1820477;78;21022;-63
2022/03/20 05:00:25;;;;;;;36.58;22.80;;;;;;;12.89;39.14;102274.19;1820570;78;21053;-64
2022/03/20 05:02:51;;;;;;;35.83;23.18;;;;;;;12.89;39.17;102272.02;1820605;78;20992;-63
2022/03/20 05:05:18;;;;;;;38.02;24.65;;;;;;;12.90;39.18;102276.36;1820555;78;21274;-63
2022/03/20 05:07:45;;;;;;;38.88;23.57;;;;;;;12.89;39.18;102281.35;1820461;78;21013;-64
2022/03/20 05:15:43;;;;;;;41.20;26.30;;;;;;;12.89;39.18;102282.19;1814583;78;21002;-64
2022/03/20 05:18:10;;;;;;;41.15;25.95;;;;;;;12.89;39.19;102288.86;1814525;79;21344;-63
2022/03/20 05:20:36;;;;;;;43.05;26.70;;;;;;;12.89;39.20;102290.69;1814381;78;20995;-64
2022/03/20 05:23:03;;;;;;;39.98;26.77;;;;;;;12.90;39.21;102291.03;1814120;78;21006;-63
2022/03/20 05:25:29;;;;;;;41.15;26.82;;;;;;;12.90;39.20;102291.03;1807587;79;21045;-63
2022/03/20 05:27:57;;;;;;;41.75;26.57;;;;;;;12.90;39.21;102293.24;1801946;78;21029;-64
2022/03/20 05:30:24;;;;;;;49.30;27.87;;;;;;;12.91;39.21;102294.08;1782308;80;21224;-62
2022/03/20 05:32:51;;;;;;;46.48;29.32;;;;;;;12.92;39.20;102294.43;1782565;79;21722;-64
2022/03/20 05:35:17;;;;;;;43.20;28.55;;;;;;;12.92;39.23;102292.63;1782537;79;21557;-63
2022/03/20 05:37:44;;;;;;;44.70;27.32;;;;;;;12.92;39.20;102294.43;1806326;79;21501;-64
2022/03/20 05:40:13;;;;;;;43.83;28.32;;;;;;;12.94;39.22;102300.03;1814452;78;21026;-64
2022/03/20 05:42:40;;;;;;;45.78;28.83;;;;;;;12.95;39.19;102309.72;1814583;79;21784;-63
2022/03/20 05:45:10;;;;;;;48.42;29.92;;;;;;;12.96;39.20;102311.43;1813333;79;20975;-63
2022/03/20 05:47:38;;;;;;;45.10;29.57;;;;;;;12.96;39.20;102307.42;1814586;79;21038;-63
2022/03/20 05:50:06;;;;;;;44.38;29.70;;;;;;;12.98;39.20;102311.31;1814561;78;21486;-63
2022/03/20 05:52:35;;;;;;;46.75;29.82;;;;;;;12.99;39.20;102315.66;1814555;78;21474;-63
2022/03/20 05:55:03;;;;;;;44.53;28.10;;;;;;;13.00;39.19;102317.38;1814459;79;21208;-64
2022/03/20 06:00:27;;;;;;;46.83;29.23;;;;;;;13.02;39.19;102319.90;1814452;78;21470;-63
2022/03/20 06:02:55;;;;;;;45.92;29.32;;;;;;;13.02;39.19;102321.23;1813278;78;20975;-64
2022/03/20 06:05:22;;;;;;;42.05;27.22;;;;;;;13.02;39.20;102323.90;1814519;79;21013;-64
2022/03/20 06:07:52;;;;;;;43.92;29.57;;;;;;;13.02;39.19;102331.45;1814504;78;21506;-64
2022/03/20 06:10:19;;;;;;;44.85;28.67;;;;;;;13.04;39.19;102328.63;1814427;78;21104;-63
2022/03/20 06:12:46;;;;;;;47.38;29.02;;;;;;;13.05;39.18;102331.67;1814519;78;21010;-64
2022/03/20 06:15:13;;;;;;;45.70;29.48;;;;;;;13.05;39.17;102332.52;1814477;79;21482;-63
2022/03/20 06:17:46;;;;;;;44.38;28.60;;;;;;;13.07;39.17;102337.73;1814522;78;21509;-62
2022/03/20 06:20:15;;;;;;;42.03;26.75;;;;;;;13.08;39.17;102332.29;1813219;79;21217;-64
2022/03/20 06:22:44;;;;;;;47.50;28.00;;;;;;;13.09;39.18;102343.31;1814374;78;20983;-63
2022/03/20 06:25:15;;;;;;;42.40;27.07;;;;;;;13.10;39.17;102334.84;1814418;78;21038;-63
2022/03/20 06:27:53;;;;;;;39.42;27.98;;;;;;;13.10;39.18;102332.17;1814327;78;21066;-64
2022/03/20 06:30:21;;;;;;;38.20;26.42;;;;;;;13.12;39.17;102336.41;1807086;78;21064;-64
2022/03/20 06:32:48;;;;;;;38.42;26.97;;;;;;;13.14;39.18;102333.12;1814671;78;21134;-63
2022/03/20 06:35:17;;;;;;;40.38;28.32;;;;;;;13.16;39.18;102333.86;1811131;79;21030;-64
2022/03/20 06:37:45;;;;;;;41.63;28.00;;;;;;;13.16;39.18;102336.52;1782666;80;21029;-64
2022/03/20 06:40:13;;;;;;;40.05;28.07;;;;;;;13.19;39.20;102334.09;1782521;80;21588;-63
2022/03/20 06:42:42;;;;;;;43.30;27.65;;;;;;;13.21;39.19;102330.81;1782742;80;20998;-64
2022/03/20 06:45:11;;;;;;;43.33;27.65;;;;;;;13.22;39.21;102328.52;1782580;80;21240;-64
2022/03/20 06:47:39;;;;;;;38.05;26.50;;;;;;;13.25;39.20;102336.30;1782697;80;21018;-64
2022/03/20 06:50:07;;;;;;;37.73;26.62;;;;;;;13.27;39.21;102330.81;1782940;80;21001;-63
2022/03/20 06:52:34;;;;;;;40.43;26.02;;;;;;;13.29;39.21;102330.20;1783969;79;21509;-64
2022/03/20 06:55:02;;;;;;;39.98;26.05;;;;;;;13.29;39.22;102320.39;1782683;80;21036;-64
2022/03/20 06:57:30;;;;;;;42.95;27.17;;;;;;;13.32;39.23;102321.98;1782801;80;21750;-64
2022/03/20 07:00:00;;;;;;;34.50;25.23;;;;;;;13.34;39.23;102322.22;1782602;80;21978;-63
2022/03/20 07:02:27;;;;;;;37.15;26.07;;;;;;;13.35;39.24;102321.27;1782368;79;21511;-62
2022/03/20 07:04:53;;;;;;;35.65;24.37;;;;;;;13.38;39.24;102318.81;1782617;80;21135;-64
2022/03/20 07:07:21;;;;;;;36.58;25.17;;;;;;;13.39;39.21;102321.87;1782501;80;21061;-64
2022/03/20 07:09:50;;;;;;;40.12;25.48;;;;;;;13.42;39.21;102320.27;1783793;79;21245;-63
2022/03/20 07:12:17;;;;;;;38.90;26.37;;;;;;;13.43;39.21;102317.97;1792005;79;21011;-63
2022/03/20 07:14:45;;;;;;;38.60;25.80;;;;;;;13.46;39.22;102315.53;1793793;79;21021;-63
2022/03/20 07:17:16;;;;;;;35.15;24.50;;;;;;;13.47;39.19;102314.58;1793651;79;21030;-63
2022/03/20 07:19:44;;;;;;;37.23;24.52;;;;;;;13.48;39.20;102317.13;1796658;78;21024;-64
2022/03/20 07:22:14;;;;;;;34.98;23.83;;;;;;;13.52;39.20;102321.70;1826170;78;21420;-64
2022/03/20 07:24:42;;;;;;;38.23;24.12;;;;;;;13.53;39.19;102318.91;1826169;78;21026;-64
2022/03/20 07:29:55;;;;;;;36.28;23.15;;;;;;;13.58;39.18;102318.56;1793732;80;20986;-65
2022/03/20 07:32:22;;;;;;;33.05;23.47;;;;;;;13.59;39.19;102309.56;1793639;79;21068;-64
2022/03/20 07:34:49;;;;;;;34.75;23.55;;;;;;;13.63;39.20;102312.83;1811099;78;21134;-64
2022/03/20 07:37:17;;;;;;;31.48;22.58;;;;;;;13.64;39.19;102309.20;1826041;78;21049;-63
2022/03/20 07:39:46;;;;;;;34.25;23.50;;;;;;;13.67;39.18;102309.77;1826135;78;20981;-63
2022/03/20 07:42:16;;;;;;;32.67;23.22;;;;;;;13.68;39.18;102308.81;1826165;78;20975;-64
2022/03/20 07:44:43;;;;;;;34.25;22.27;;;;;;;13.72;39.19;102313.42;1802961;78;20993;-64
2022/03/20 07:47:20;;;;;;;33.60;22.98;;;;;;;13.73;39.19;102307.95;1793642;80;21918;-64
2022/03/20 07:49:48;;;;;;;32.63;21.20;;;;;;;13.77;39.21;102312.53;1793199;79;20990;-63
2022/03/20 07:52:14;;;;;;;28.75;20.80;;;;;;;13.79;39.22;102309.28;1793729;80;21084;-63
2022/03/20 07:54:41;;;;;;;31.52;22.07;;;;;;;13.83;39.20;102317.86;1793835;80;20970;-63
2022/03/20 07:57:08;;;;;;;26.40;20.77;;;;;;;13.85;39.25;102315.45;1793780;80;20994;-63
2022/03/20 07:59:36;;;;;;;30.43;21.20;;;;;;;13.88;39.22;102311.17;1793734;79;21022;-64
2022/03/20 08:02:03;;;;;;;29.57;19.67;;;;;;;13.91;39.26;102308.25;1794890;78;21002;-64
2022/03/20 08:04:31;;;;;;;30.43;20.72;;;;;;;13.94;39.21;102308.47;1793564;80;21056;-65
2022/03/20 08:06:58;;;;;;;28.98;20.05;;;;;;;13.97;39.24;102306.90;1793739;80;21006;-63
2022/03/20 08:09:27;;;;;;;27.13;20.52;;;;;;;14.00;39.26;102307.12;1793617;79;21473;-63
2022/03/20 08:11:55;;;;;;;27.65;20.37;;;;;;;14.03;39.25;102301.53;1793589;78;21153;-64
2022/03/20 08:14:23;;;;;;;27.45;19.65;;;;;;;14.05;39.23;102304.92;1793548;80;20989;-64
2022/03/20 08:16:52;;;;;;;25.75;19.27;;;;;;;14.06;39.24;102303.46;1793611;79;21076;-64
2022/03/20 08:19:23;;;;;;;25.27;18.20;;;;;;;14.10;39.30;102304.90;1794817;78;21012;-64
2022/03/20 08:21:49;;;;;;;24.82;19.67;;;;;;;14.13;39.28;102305.13;1824598;78;21006;-63
2022/03/20 08:24:17;;;;;;;26.68;19.27;;;;;;;14.16;39.27;102299.53;1826028;78;21093;-64
2022/03/20 08:26:44;;;;;;;29.60;19.45;;;;;;;14.20;39.29;102302.77;1826035;78;20993;-64
2022/03/20 08:29:12;;;;;;;25.25;18.62;;;;;;;14.23;39.32;102301.18;1826175;78;20970;-63
2022/03/20 08:31:44;;;;;;;27.15;18.85;;;;;;;14.26;39.29;102306.28;1826165;78;21037;-64
2022/03/20 08:34:08;;;;;;;27.20;19.73;;;;;;;14.28;39.30;102298.48;1823800;78;21010;-67
2022/03/20 08:36:35;;;;;;;24.30;18.10;;;;;;;14.32;39.31;102295.90;1793690;80;21243;-63
2022/03/20 08:39:01;;;;;;;23.47;17.65;;;;;;;14.34;39.29;102297.11;1795074;78;21001;-64
2022/03/20 08:41:28;;;;;;;25.02;18.30;;;;;;;14.37;39.27;102292.86;1826053;78;21006;-64
2022/03/20 08:43:55;;;;;;;23.65;17.45;;;;;;;14.40;39.31;102297.08;1826127;78;21053;-64
2022/03/20 08:46:23;;;;;;;23.65;18.27;;;;;;;14.44;39.32;102293.16;1826071;78;21017;-64
2022/03/20 08:48:50;;;;;;;27.02;18.30;;;;;;;14.47;39.28;102294.25;1826140;78;21908;-65
2022/03/20 08:51:16;;;;;;;21.73;16.42;;;;;;;14.52;39.28;102297.36;1822264;78;21033;-63
2022/03/20 08:53:43;;;;;;;25.77;16.85;;;;;;;14.54;39.30;102294.94;1793496;80;21061;-64
2022/03/20 08:56:09;;;;;;;21.30;16.05;;;;;;;14.59;39.27;102296.39;1793628;80;21064;-64
2022/03/20 08:58:36;;;;;;;22.15;16.32;;;;;;;14.62;39.32;102292.97;1793574;80;21028;-64
2022/03/20 09:01:02;;;;;;;22.40;17.60;;;;;;;14.65;39.37;102296.70;1793649;79;21217;-64
2022/03/20 09:03:29;;;;;;;20.88;16.15;;;;;;;14.69;39.40;102287.42;1793789;79;20990;-64
2022/03/20 09:05:56;;;;;;;22.48;16.07;;;;;;;14.72;39.38;102288.50;1793567;80;20998;-63
2022/03/20 09:08:23;;;;;;;20.55;16.60;;;;;;;14.78;39.36;102282.27;1794537;78;21072;-65
2022/03/20 09:10:54;;;;;;;21.80;16.80;;;;;;;14.82;39.33;102287.71;1793432;79;20978;-62
2022/03/20 09:13:21;;;;;;;20.90;14.65;;;;;;;14.87;39.33;102287.67;1782454;80;21248;-65
2022/03/20 09:18:59;;;;;;;20.20;16.32;;;;;;;14.92;39.34;102286.75;1782433;80;21026;-64
2022/03/20 09:21:03;;;;;;;20.60;15.48;;;;;;;15.03;39.16;102281.81;1802415;79;21072;-64
2022/03/20 09:23:29;;;;;;;19.82;14.70;;;;;;;15.10;39.09;102282.09;1814361;79;21072;-64
2022/03/20 09:25:56;;;;;;;20.68;15.75;;;;;;;15.16;39.12;102278.88;1801363;79;21871;-63
2022/03/20 09:28:23;;;;;;;20.20;14.47;;;;;;;15.22;39.16;102281.50;1782400;80;21003;-64
2022/03/20 09:30:50;;;;;;;18.17;14.35;;;;;;;15.28;39.18;102277.80;1782418;80;20998;-63
2022/03/20 09:33:18;;;;;;;20.32;14.20;;;;;;;15.34;39.33;102268.37;1782504;79;21057;-64
2022/03/20 09:35:44;;;;;;;18.10;14.70;;;;;;;15.42;39.45;102273.03;1782707;80;21072;-64
2022/03/20 09:38:11;;;;;;;21.25;14.38;;;;;;;15.49;39.56;102277.70;1782332;79;21299;-65
2022/03/20 09:40:38;;;;;;;18.55;14.53;;;;;;;15.56;39.54;102273.13;1782417;79;21069;-64
2022/03/20 09:43:06;;;;;;;18.60;14.10;;;;;;;15.63;39.61;102271.09;1771468;79;21505;-64
2022/03/20 09:45:34;;;;;;;17.42;13.85;;;;;;;15.69;39.58;102265.66;1796693;79;20997;-64
2022/03/20 09:48:01;;;;;;;21.48;15.38;;;;;;;15.78;39.61;102268.02;1811843;79;21037;-64
2022/03/20 09:50:27;;;;;;;17.77;13.32;;;;;;;15.84;39.55;102264.30;1814475;79;21228;-64
2022/03/20 09:52:53;;;;;;;18.30;14.23;;;;;;;15.91;39.54;102263.22;1814413;79;21061;-64
2022/03/20 09:55:20;;;;;;;19.80;13.15;;;;;;;15.99;39.52;102261.17;1814509;79;21010;-64
2022/03/20 09:57:48;;;;;;;16.50;12.82;;;;;;;16.06;39.47;102255.59;1814732;78;21506;-64
2022/03/20 10:00:16;;;;;;;16.82;12.50;;;;;;;16.12;39.46;102258.54;1797806;78;21541;-65
2022/03/20 10:02:43;;;;;;;16.15;12.82;;;;;;;16.21;39.43;102258.69;1782500;79;21139;-64
2022/03/20 10:05:10;;;;;;;15.68;12.85;;;;;;;16.29;39.42;102258.30;1782278;80;21036;-64
2022/03/20 10:07:40;;;;;;;14.95;12.00;;;;;;;16.37;39.36;102248.70;1782452;80;21128;-63
2022/03/20 10:10:25;;;;;;;15.50;12.25;;;;;;;16.45;39.30;102252.84;1782605;80;21493;-64
2022/03/20 10:12:55;;;;;;;15.95;12.23;;;;;;;16.54;39.32;102257.34;1774364;80;21069;-63
2022/03/20 10:15:39;;;;;;;16.10;11.75;;;;;;;16.64;39.24;102261.33;1793468;80;21216;-64
2022/03/20 10:18:20;;;;;;;16.32;12.07;;;;;;;16.73;39.14;102256.90;1794299;78;20977;-64
2022/03/20 10:20:53;;;;;;;13.65;11.12;;;;;;;16.81;39.09;102253.84;1810241;78;21041;-64
2022/03/20 10:23:36;;;;;;;14.50;11.57;;;;;;;16.92;39.01;102251.51;1825865;78;20990;-65
2022/03/20 10:26:44;;;;;;;13.48;10.90;;;;;;;17.09;38.94;102248.02;1870450;76;28020;-64
2022/03/20 10:29:15;;;;;;;13.55;11.73;;;;;;;17.16;38.85;102247.42;1826521;77;21040;-65
2022/03/20 10:31:51;;;;;;;13.50;10.43;;;;;;;17.35;38.73;102241.92;1826911;78;22010;-63
2022/03/20 10:34:18;;;;;;;14.73;11.08;;;;;;;17.35;38.73;102241.92;1809142;78;21903;-64
2022/03/20 10:36:45;;;;;;;13.25;9.98;;;;;;;17.44;38.69;102242.36;1794056;80;21548;-64
2022/03/20 10:39:16;;;;;;;13.90;11.28;;;;;;;17.55;38.64;102241.27;1794166;80;21494;-63
2022/03/20 10:41:45;;;;;;;15.00;10.80;;;;;;;17.65;38.59;102229.97;1794188;80;20986;-64
2022/03/20 10:44:21;;;;;;;13.15;10.58;;;;;;;17.75;38.60;102229.02;1794042;80;21141;-64
2022/03/20 10:47:18;;;;;;;13.85;10.78;;;;;;;17.85;38.55;102232.52;1794113;80;20914;-64
2022/03/20 10:49:34;;;;;;;13.13;10.20;;;;;;;17.95;38.51;102229.23;1792618;78;21060;-63
2022/03/20 10:52:09;;;;;;;13.68;10.60;;;;;;;18.05;38.48;102227.28;1814922;78;21459;-63
2022/03/20 10:54:48;;;;;;;11.15;10.00;;;;;;;18.15;38.48;102227.18;1826585;78;20986;-64
2022/03/20 10:57:15;;;;;;;12.95;9.78;;;;;;;18.24;38.45;102222.20;1826717;78;21196;-64
2022/03/20 10:59:42;;;;;;;11.33;9.93;;;;;;;18.36;38.44;102224.62;1826452;78;21056;-64
2022/03/20 11:02:23;;;;;;;13.25;10.08;;;;;;;18.44;38.41;102220.64;1826476;78;20966;-64
2022/03/20 11:04:50;;;;;;;12.33;9.70;;;;;;;18.55;38.38;102220.88;1826474;78;21025;-65
2022/03/20 11:07:23;;;;;;;10.75;9.65;;;;;;;18.65;38.34;102213.00;1821990;78;21083;-65
2022/03/20 11:09:51;;;;;;;10.45;9.08;;;;;;;18.75;38.33;102205.31;1794031;80;21211;-65
2022/03/20 11:12:27;;;;;;;10.43;8.48;;;;;;;18.85;38.30;102204.22;1793831;80;21013;-65
2022/03/20 11:14:57;;;;;;;11.50;9.03;;;;;;;18.97;38.29;102203.92;1775737;80;21092;-65
2022/03/20 11:17:27;;;;;;;10.53;8.85;;;;;;;19.07;38.25;102197.05;1773217;80;21021;-64
2022/03/20 11:19:54;;;;;;;11.28;8.95;;;;;;;19.17;38.21;102185.61;1799269;78;21587;-64
2022/03/20 11:22:21;;;;;;;9.95;8.40;;;;;;;19.28;38.17;102191.17;1826341;78;21107;-64
2022/03/20 11:24:50;;;;;;;10.78;8.40;;;;;;;19.37;38.15;102187.00;1815447;78;21064;-64
2022/03/20 11:27:24;;;;;;;9.38;8.20;;;;;;;19.48;38.11;102180.94;1793847;80;21170;-64
2022/03/20 11:30:03;;;;;;;10.15;8.55;;;;;;;19.58;38.07;102184.30;1794053;80;21501;-64
2022/03/20 11:32:30;;;;;;;9.70;8.30;;;;;;;19.68;38.06;102184.13;1793903;80;21343;-65
2022/03/20 11:34:56;;;;;;;9.65;8.60;;;;;;;19.78;38.05;102177.59;1793958;80;21228;-64
2022/03/20 11:37:23;;;;;;;10.68;8.68;;;;;;;19.89;38.05;102173.70;1793502;80;21037;-63
2022/03/20 11:40:24;;;;;;;9.70;8.08;;;;;;;19.98;38.00;102175.38;1793754;80;20993;-63
2022/03/20 11:43:13;;;;;;;10.93;8.48;;;;;;;20.07;37.94;102168.13;1794554;78;21029;-64
2022/03/20 11:45:39;;;;;;;10.13;8.20;;;;;;;20.20;37.86;102167.09;1787910;79;21572;-64
2022/03/20 11:48:16;;;;;;;9.53;8.53;;;;;;;20.31;37.83;102166.38;1793595;80;21485;-64
2022/03/20 11:50:47;;;;;;;8.95;7.95;;;;;;;20.41;37.72;102165.65;1793366;79;21142;-63